createdAt,value
2023-03-26T00:01:46.628Z,100.00
2023-03-26T00:03:44.933Z,100.00
2023-03-26T00:05:40.193Z,100.00
2023-03-26T00:07:35.272Z,100.00
2023-03-26T00:09:31.296Z,100.00
2023-03-26T00:11:29.372Z,100.00
2023-03-26T00:13:24.787Z,100.00
2023-03-26T00:15:22.473Z,100.00
2023-03-26T00:17:18.019Z,100.00
2023-03-26T00:19:14.034Z,100.00
2023-03-26T00:21:10.603Z,100.00
2023-03-26T00:23:05.810Z,100.00
2023-03-26T00:25:01.534Z,100.00
2023-03-26T00:26:57.030Z,100.00
2023-03-26T00:28:52.609Z,100.00
2023-03-26T00:30:50.957Z,100.00
2023-03-26T00:32:53.393Z,100.00
2023-03-26T00:34:52.124Z,100.00
2023-03-26T00:36:47.450Z,100.00
2023-03-26T00:38:43.711Z,100.00
2023-03-26T00:40:38.774Z,100.00
2023-03-26T00:42:34.003Z,100.00
2023-03-26T00:44:29.354Z,100.00
2023-03-26T00:46:27.846Z,100.00
2023-03-26T00:48:34.479Z,100.00
2023-03-26T00:50:39.280Z,100.00
2023-03-26T00:52:36.294Z,100.00
2023-03-26T00:54:32.025Z,100.00
2023-03-26T00:56:27.961Z,100.00
2023-03-26T00:58:23.064Z,100.00
2023-03-26T01:00:21.115Z,100.00
2023-03-26T01:02:22.556Z,100.00
2023-03-26T01:04:28.364Z,100.00
2023-03-26T01:06:27.963Z,100.00
2023-03-26T01:08:30.749Z,100.00
2023-03-26T01:10:26.386Z,100.00
2023-03-26T01:12:24.403Z,100.00
2023-03-26T01:14:23.658Z,100.00
2023-03-26T01:16:25.598Z,100.00
2023-03-26T01:18:26.466Z,100.00
2023-03-26T01:20:26.933Z,100.00
2023-03-26T01:22:24.582Z,100.00
2023-03-26T01:24:22.620Z,100.00
2023-03-26T01:26:32.443Z,100.00
2023-03-26T01:28:32.137Z,100.00
2023-03-26T01:30:34.250Z,100.00
2023-03-26T01:32:40.623Z,100.00
2023-03-26T01:34:49.753Z,100.00
2023-03-26T01:36:56.072Z,100.00
2023-03-26T01:39:00.576Z,100.00
2023-03-26T01:41:04.921Z,100.00
2023-03-26T01:43:07.480Z,100.00
2023-03-26T01:45:08.421Z,100.00
2023-03-26T01:47:04.022Z,100.00
2023-03-26T01:48:59.395Z,100.00
2023-03-26T01:50:56.488Z,100.00
2023-03-26T01:52:52.206Z,100.00
2023-03-26T01:54:47.724Z,100.00
2023-03-26T01:56:57.110Z,100.00
2023-03-26T01:59:02.613Z,100.00
2023-03-26T02:01:05.872Z,100.00
2023-03-26T02:03:22.500Z,100.00
2023-03-26T02:05:23.624Z,100.00
2023-03-26T02:07:28.808Z,100.00
2023-03-26T02:09:30.652Z,100.00
2023-03-26T02:11:34.827Z,100.00
2023-03-26T02:13:34.665Z,100.00
2023-03-26T02:15:29.802Z,100.00
2023-03-26T02:17:25.325Z,100.00
2023-03-26T02:19:21.946Z,100.00
2023-03-26T02:21:21.516Z,100.00
2023-03-26T02:23:16.561Z,100.00
2023-03-26T02:25:13.666Z,100.00
2023-03-26T02:27:09.668Z,100.00
2023-03-26T02:29:07.667Z,100.00
2023-03-26T02:31:03.532Z,100.00
2023-03-26T02:33:01.901Z,100.00
2023-03-26T02:34:57.344Z,100.00
2023-03-26T02:36:52.790Z,100.00
2023-03-26T02:38:47.986Z,100.00
2023-03-26T02:40:44.081Z,100.00
2023-03-26T02:42:39.120Z,100.00
2023-03-26T02:44:38.915Z,100.00
2023-03-26T02:46:34.377Z,100.00
2023-03-26T02:48:29.692Z,100.00
2023-03-26T02:50:24.826Z,100.00
2023-03-26T02:52:20.624Z,100.00
2023-03-26T02:54:16.861Z,100.00
2023-03-26T02:56:12.723Z,100.00
2023-03-26T02:58:07.976Z,100.00
2023-03-26T03:00:14.366Z,100.00
2023-03-26T03:02:09.508Z,100.00
2023-03-26T03:04:08.597Z,100.00
2023-03-26T03:06:03.613Z,100.00
2023-03-26T03:07:59.639Z,100.00
2023-03-26T03:09:54.763Z,100.00
2023-03-26T03:11:50.341Z,100.00
2023-03-26T03:13:45.854Z,100.00
2023-03-26T03:15:44.306Z,100.00
2023-03-26T03:17:39.410Z,100.00
2023-03-26T03:19:35.130Z,100.00
2023-03-26T03:21:31.388Z,100.00
2023-03-26T03:23:26.755Z,100.00
2023-03-26T03:25:22.340Z,100.00
2023-03-26T03:27:19.584Z,100.00
2023-03-26T03:29:14.984Z,100.00
2023-03-26T03:31:13.082Z,100.00
2023-03-26T03:33:08.556Z,100.00
2023-03-26T03:35:03.936Z,100.00
2023-03-26T03:36:59.271Z,100.00
2023-03-26T03:38:54.653Z,100.00
2023-03-26T03:40:49.902Z,100.00
2023-03-26T03:42:45.537Z,100.00
2023-03-26T03:44:40.526Z,100.00
2023-03-26T03:46:38.575Z,100.00
2023-03-26T03:48:33.612Z,100.00
2023-03-26T03:50:29.141Z,100.00
2023-03-26T03:52:24.218Z,100.00
2023-03-26T03:54:19.566Z,100.00
2023-03-26T03:56:14.897Z,100.00
2023-03-26T03:58:10.288Z,100.00
2023-03-26T04:00:08.185Z,100.00
2023-03-26T04:02:06.711Z,100.00
2023-03-26T04:04:02.296Z,100.00
2023-03-26T04:05:58.379Z,100.00
2023-03-26T04:07:53.374Z,100.00
2023-03-26T04:09:48.850Z,100.00
2023-03-26T04:11:43.938Z,100.00
2023-03-26T04:13:39.639Z,100.00
2023-03-26T04:15:36.109Z,100.00
2023-03-26T04:17:34.304Z,100.00
2023-03-26T04:19:29.648Z,100.00
2023-03-26T04:21:26.455Z,100.00
2023-03-26T04:23:22.676Z,100.00
2023-03-26T04:25:18.304Z,100.00
2023-03-26T04:27:18.281Z,100.00
2023-03-26T04:29:18.334Z,100.00
2023-03-26T04:31:16.556Z,100.00
2023-03-26T04:33:17.155Z,100.00
2023-03-26T04:35:16.720Z,100.00
2023-03-26T04:37:17.071Z,100.00
2023-03-26T04:39:14.599Z,100.00
2023-03-26T04:41:11.500Z,100.00
2023-03-26T04:43:06.875Z,100.00
2023-03-26T04:45:03.216Z,100.00
2023-03-26T04:46:58.313Z,100.00
2023-03-26T04:48:57.654Z,100.00
2023-03-26T04:50:53.049Z,100.00
2023-03-26T04:52:48.643Z,100.00
2023-03-26T04:54:47.381Z,100.00
2023-03-26T04:56:48.628Z,100.00
2023-03-26T04:58:43.685Z,100.00
2023-03-26T05:00:39.088Z,100.00
2023-03-26T05:02:34.299Z,100.00
2023-03-26T05:04:34.165Z,100.00
2023-03-26T05:06:34.431Z,100.00
2023-03-26T05:08:30.674Z,100.00
2023-03-26T05:10:26.401Z,100.00
2023-03-26T05:12:22.022Z,100.00
2023-03-26T05:14:17.252Z,100.00
2023-03-26T05:16:13.507Z,100.00
2023-03-26T05:18:09.044Z,100.00
2023-03-26T05:20:09.047Z,100.00
2023-03-26T05:22:04.115Z,100.00
2023-03-26T05:23:59.577Z,100.00
2023-03-26T05:25:54.814Z,100.00
2023-03-26T05:27:50.703Z,100.00
2023-03-26T05:29:46.045Z,100.00
2023-03-26T05:31:41.452Z,100.00
2023-03-26T05:33:36.879Z,100.00
2023-03-26T05:35:34.998Z,100.00
2023-03-26T05:37:32.049Z,100.00
2023-03-26T05:39:27.764Z,100.00
2023-03-26T05:41:22.852Z,100.00
2023-03-26T05:43:18.240Z,100.00
2023-03-26T05:45:15.479Z,100.00
2023-03-26T05:47:10.995Z,100.00
2023-03-26T05:49:06.350Z,100.00
2023-03-26T05:51:04.388Z,100.00
2023-03-26T05:52:59.469Z,100.00
2023-03-26T05:54:55.019Z,100.00
2023-03-26T05:56:50.174Z,100.00
2023-03-26T05:58:45.915Z,100.00
2023-03-26T06:00:41.244Z,100.00
2023-03-26T06:02:36.654Z,100.00
2023-03-26T06:04:32.088Z,100.00
2023-03-26T06:06:33.097Z,100.00
2023-03-26T06:08:29.391Z,100.00
2023-03-26T06:10:25.034Z,100.00
2023-03-26T06:12:20.410Z,100.00
2023-03-26T06:14:16.078Z,100.00
2023-03-26T06:16:21.117Z,100.00
2023-03-26T06:18:23.175Z,100.00
2023-03-26T06:20:18.852Z,100.00
2023-03-26T06:22:17.113Z,100.00
2023-03-26T06:24:12.712Z,100.00
2023-03-26T06:26:08.699Z,100.00
2023-03-26T06:28:03.990Z,100.00
2023-03-26T06:29:59.671Z,100.00
2023-03-26T06:31:55.079Z,100.00
2023-03-26T06:33:51.469Z,100.00
2023-03-26T06:35:47.354Z,100.00
2023-03-26T06:37:45.519Z,100.00
2023-03-26T06:39:40.903Z,100.00
2023-03-26T06:41:37.034Z,100.00
2023-03-26T06:43:33.833Z,100.00
2023-03-26T06:45:29.641Z,100.00
2023-03-26T06:47:24.729Z,100.00
2023-03-26T06:49:20.972Z,100.00
2023-03-26T06:51:16.065Z,100.00
2023-03-26T06:53:14.542Z,100.00
2023-03-26T06:55:10.677Z,100.00
2023-03-26T06:57:06.149Z,100.00
2023-03-26T06:59:01.213Z,100.00
2023-03-26T07:00:57.145Z,100.00
2023-03-26T07:02:52.422Z,100.00
2023-03-26T07:04:47.794Z,100.00
2023-03-26T07:06:42.792Z,100.00
2023-03-26T07:08:40.984Z,100.00
2023-03-26T07:10:36.142Z,100.00
2023-03-26T07:12:31.586Z,100.00
2023-03-26T07:14:28.082Z,100.00
2023-03-26T07:16:23.823Z,100.00
2023-03-26T07:18:18.870Z,100.00
2023-03-26T07:20:15.535Z,100.00
2023-03-26T07:22:17.240Z,100.00
2023-03-26T07:24:17.077Z,100.00
2023-03-26T07:26:28.492Z,100.00
2023-03-26T07:28:36.815Z,100.00
2023-03-26T07:30:39.322Z,100.00
2023-03-26T07:32:44.916Z,100.00
2023-03-26T07:34:49.837Z,100.00
2023-03-26T07:36:55.063Z,100.00
2023-03-26T07:39:02.385Z,100.00
2023-03-26T07:41:08.673Z,100.00
2023-03-26T07:43:08.931Z,100.00
2023-03-26T07:45:11.403Z,100.00
2023-03-26T07:47:25.710Z,100.00
2023-03-26T07:49:22.058Z,100.00
2023-03-26T07:51:18.922Z,100.00
2023-03-26T07:53:15.040Z,100.00
2023-03-26T07:55:15.384Z,100.00
2023-03-26T07:57:23.010Z,100.00
2023-03-26T07:59:25.909Z,100.00
2023-03-26T08:01:29.948Z,100.00
2023-03-26T08:03:35.142Z,100.00
2023-03-26T08:05:34.389Z,100.00
2023-03-26T08:07:42.492Z,100.00
2023-03-26T08:09:46.067Z,100.00
2023-03-26T08:11:50.956Z,100.00
2023-03-26T08:14:00.196Z,100.00
2023-03-26T08:16:05.802Z,100.00
2023-03-26T08:18:07.886Z,100.00
2023-03-26T08:20:17.064Z,100.00
2023-03-26T08:22:18.010Z,100.00
2023-03-26T08:24:21.018Z,100.00
2023-03-26T08:26:24.072Z,100.00
2023-03-26T08:28:30.674Z,100.00
2023-03-26T08:30:31.156Z,100.00
2023-03-26T08:32:27.658Z,100.00
2023-03-26T08:34:22.775Z,100.00
2023-03-26T08:36:18.642Z,100.00
2023-03-26T08:38:15.517Z,100.00
2023-03-26T08:40:12.574Z,100.00
2023-03-26T08:42:39.226Z,100.00
2023-03-26T08:45:09.971Z,100.00
2023-03-26T08:47:34.732Z,100.00
2023-03-26T08:49:57.989Z,100.00
2023-03-26T08:52:24.815Z,100.00
2023-03-26T08:54:49.825Z,100.00
2023-03-26T08:56:55.122Z,100.00
2023-03-26T08:59:21.773Z,100.00
2023-03-26T09:01:45.569Z,100.00
2023-03-26T09:04:34.858Z,100.00
2023-03-26T09:07:06.839Z,100.00
2023-03-26T09:09:32.357Z,100.00
2023-03-26T09:11:53.841Z,100.00
2023-03-26T09:14:11.727Z,100.00
2023-03-26T09:16:25.941Z,100.00
2023-03-26T09:18:55.755Z,100.00
2023-03-26T09:21:25.670Z,100.00
2023-03-26T09:23:45.772Z,100.00
2023-03-26T09:26:28.115Z,100.00
2023-03-26T09:28:55.258Z,100.00
2023-03-26T09:31:25.092Z,100.00
2023-03-26T09:33:56.150Z,100.00
2023-03-26T09:35:57.266Z,100.00
2023-03-26T09:38:00.438Z,100.00
2023-03-26T09:40:17.623Z,100.00
2023-03-26T09:42:20.883Z,100.00
2023-03-26T09:44:40.800Z,100.00
2023-03-26T09:46:46.704Z,100.00
2023-03-26T09:49:25.469Z,100.00
2023-03-26T09:51:35.523Z,100.00
2023-03-26T09:53:50.691Z,100.00
2023-03-26T09:56:04.226Z,100.00
2023-03-26T09:58:12.620Z,100.00
2023-03-26T10:00:25.877Z,100.00
2023-03-26T10:02:47.611Z,100.00
2023-03-26T10:05:07.609Z,100.00
2023-03-26T10:07:09.852Z,100.00
2023-03-26T10:09:25.205Z,100.00
2023-03-26T10:11:34.800Z,100.00
2023-03-26T10:13:37.781Z,100.00
2023-03-26T10:15:43.695Z,100.00
2023-03-26T10:17:52.652Z,100.00
2023-03-26T10:20:09.303Z,100.00
2023-03-26T10:22:16.027Z,100.00
2023-03-26T10:24:21.231Z,100.00
2023-03-26T10:26:36.726Z,100.00
2023-03-26T10:28:56.908Z,100.00
2023-03-26T10:31:10.771Z,100.00
2023-03-26T10:33:17.271Z,100.00
2023-03-26T10:35:24.733Z,100.00
2023-03-26T10:37:28.008Z,100.00
2023-03-26T10:39:48.677Z,100.00
2023-03-26T10:41:57.687Z,100.00
2023-03-26T10:44:29.623Z,100.00
2023-03-26T10:46:44.392Z,100.00
2023-03-26T10:49:15.806Z,100.00
2023-03-26T10:51:36.489Z,100.00
2023-03-26T10:53:38.536Z,100.00
2023-03-26T10:55:40.314Z,100.00
2023-03-26T10:57:46.860Z,100.00
2023-03-26T10:59:42.266Z,100.00
2023-03-26T11:01:49.040Z,100.00
2023-03-26T11:03:52.982Z,100.00
2023-03-26T11:05:54.256Z,100.00
2023-03-26T11:07:58.434Z,100.00
2023-03-26T11:10:00.434Z,100.00
2023-03-26T11:12:00.719Z,100.00
2023-03-26T11:14:07.276Z,100.00
2023-03-26T11:16:08.102Z,100.00
2023-03-26T11:18:14.523Z,100.00
2023-03-26T11:20:16.384Z,100.00
2023-03-26T11:22:23.537Z,100.00
2023-03-26T11:24:44.068Z,100.00
2023-03-26T11:26:50.157Z,100.00
2023-03-26T11:29:32.261Z,100.00
2023-03-26T11:31:35.894Z,100.00
2023-03-26T11:33:37.892Z,100.00
2023-03-26T11:35:45.454Z,100.00
2023-03-26T11:37:46.486Z,100.00
2023-03-26T11:39:48.884Z,100.00
2023-03-26T11:41:44.044Z,100.00
2023-03-26T11:43:39.621Z,100.00
2023-03-26T11:45:40.916Z,100.00
2023-03-26T11:47:41.729Z,100.00
2023-03-26T11:49:37.177Z,100.00
2023-03-26T11:51:35.665Z,100.00
2023-03-26T11:53:34.738Z,100.00
2023-03-26T11:55:30.443Z,100.00
2023-03-26T11:57:33.369Z,100.00
2023-03-26T11:59:36.987Z,100.00
2023-03-26T12:01:53.142Z,100.00
2023-03-26T12:04:01.488Z,100.00
2023-03-26T12:06:02.915Z,100.00
2023-03-26T12:08:00.282Z,100.00
2023-03-26T12:09:56.916Z,100.00
2023-03-26T12:12:14.900Z,100.00
2023-03-26T12:14:11.071Z,100.00
2023-03-26T12:16:14.799Z,100.00
2023-03-26T12:18:27.882Z,100.00
2023-03-26T12:20:36.958Z,100.00
2023-03-26T12:22:36.322Z,100.00
2023-03-26T12:24:33.532Z,100.00
2023-03-26T12:26:37.628Z,100.00
2023-03-26T12:28:35.098Z,100.00
2023-03-26T12:30:33.928Z,100.00
2023-03-26T12:32:45.644Z,100.00
2023-03-26T12:34:45.038Z,100.00
2023-03-26T12:36:40.531Z,100.00
2023-03-26T12:38:38.290Z,100.00
2023-03-26T12:40:36.780Z,100.00
2023-03-26T12:44:49.933Z,100.00
2023-03-26T12:44:58.919Z,100.00
2023-03-26T12:47:56.447Z,100.00
2023-03-26T12:49:26.856Z,100.00
2023-03-26T12:51:34.512Z,100.00
2023-03-26T12:53:41.880Z,100.00
2023-03-26T12:55:45.114Z,100.00
2023-03-26T12:57:46.358Z,100.00
2023-03-26T12:59:52.737Z,100.00
2023-03-26T13:01:57.474Z,100.00
2023-03-26T13:04:15.418Z,100.00
2023-03-26T13:06:26.751Z,100.00
2023-03-26T13:08:42.311Z,100.00
2023-03-26T13:10:51.477Z,100.00
2023-03-26T13:13:01.938Z,100.00
2023-03-26T13:15:10.426Z,100.00
2023-03-26T13:17:15.206Z,100.00
2023-03-26T13:19:15.262Z,100.00
2023-03-26T13:21:15.538Z,100.00
2023-03-26T13:23:20.887Z,100.00
2023-03-26T13:25:33.750Z,100.00
2023-03-26T13:27:44.626Z,100.00
2023-03-26T13:29:48.034Z,100.00
2023-03-26T13:31:51.447Z,100.00
2023-03-26T13:33:57.860Z,100.00
2023-03-26T13:36:19.051Z,100.00
2023-03-26T13:38:23.955Z,100.00
2023-03-26T13:40:31.893Z,100.00
2023-03-26T13:42:40.346Z,100.00
2023-03-26T13:44:46.168Z,100.00
2023-03-26T13:46:45.495Z,100.00
2023-03-26T13:48:50.311Z,100.00
2023-03-26T13:50:52.782Z,100.00
2023-03-26T13:52:53.182Z,100.00
2023-03-26T13:54:52.597Z,100.00
2023-03-26T13:56:55.989Z,100.00
2023-03-26T13:58:57.073Z,100.00
2023-03-26T14:00:57.405Z,100.00
2023-03-26T14:02:59.869Z,100.00
2023-03-26T14:04:59.546Z,100.00
2023-03-26T14:07:01.602Z,100.00
2023-03-26T14:09:02.759Z,100.00
2023-03-26T14:11:06.466Z,100.00
2023-03-26T14:13:09.935Z,100.00
2023-03-26T14:15:07.595Z,100.00
2023-03-26T14:17:09.545Z,100.00
2023-03-26T14:19:24.929Z,100.00
2023-03-26T14:21:43.304Z,100.00
2023-03-26T14:23:57.204Z,100.00
2023-03-26T14:26:04.644Z,100.00
2023-03-26T14:28:26.689Z,100.00
2023-03-26T14:30:54.612Z,100.00
2023-03-26T14:33:04.239Z,100.00
2023-03-26T14:35:21.679Z,100.00
2023-03-26T14:37:42.454Z,100.00
2023-03-26T14:40:05.852Z,98.62
2023-03-26T14:42:05.417Z,97.11
2023-03-26T14:44:27.644Z,89.05
2023-03-26T14:46:38.118Z,90.93
2023-03-26T14:49:01.956Z,95.44
2023-03-26T14:51:07.447Z,93.18
2023-03-26T14:53:06.216Z,94.37
2023-03-26T14:55:07.655Z,93.87
2023-03-26T14:57:29.158Z,93.25
2023-03-26T14:59:54.656Z,98.16
2023-03-26T15:02:21.009Z,100.00
2023-03-26T15:04:49.201Z,100.00
2023-03-26T15:07:26.530Z,99.38
2023-03-26T15:09:54.030Z,100.00
2023-03-26T15:11:56.307Z,100.00
2023-03-26T15:14:46.570Z,100.00
2023-03-26T15:17:12.728Z,97.58
2023-03-26T15:19:44.249Z,100.00
2023-03-26T15:22:18.730Z,99.00
2023-03-26T15:24:35.364Z,100.00
2023-03-26T15:27:01.788Z,99.39
2023-03-26T15:29:34.196Z,100.00
2023-03-26T15:31:59.217Z,98.92
2023-03-26T15:34:31.741Z,100.00
2023-03-26T15:36:58.952Z,100.00
2023-03-26T15:39:32.924Z,99.54
2023-03-26T15:41:34.739Z,100.00
2023-03-26T15:44:24.138Z,100.00
2023-03-26T15:46:36.078Z,100.00
2023-03-26T15:48:52.289Z,100.00
2023-03-26T15:50:56.962Z,100.00
2023-03-26T15:53:05.460Z,100.00
2023-03-26T15:55:06.701Z,100.00
2023-03-26T15:57:19.977Z,100.00
2023-03-26T15:59:28.384Z,100.00
2023-03-26T16:01:40.801Z,100.00
2023-03-26T16:03:44.382Z,100.00
2023-03-26T16:06:10.533Z,100.00
2023-03-26T16:08:14.957Z,100.00
2023-03-26T16:10:26.422Z,100.00
2023-03-26T16:12:32.722Z,100.00
2023-03-26T16:14:45.769Z,100.00
2023-03-26T16:16:59.331Z,100.00
2023-03-26T16:19:01.181Z,100.00
2023-03-26T16:20:58.833Z,100.00
2023-03-26T16:23:04.556Z,100.00
2023-03-26T16:25:28.688Z,100.00
2023-03-26T16:27:37.022Z,100.00
2023-03-26T16:29:34.541Z,100.00
2023-03-26T16:31:37.805Z,100.00
2023-03-26T16:33:40.511Z,100.00
2023-03-26T16:35:43.714Z,100.00
2023-03-26T16:37:43.964Z,100.00
2023-03-26T16:39:46.462Z,100.00
2023-03-26T16:42:06.028Z,100.00
2023-03-26T16:44:10.823Z,100.00
2023-03-26T16:46:11.838Z,100.00
2023-03-26T16:48:18.557Z,100.00
2023-03-26T16:50:31.210Z,100.00
2023-03-26T16:52:46.389Z,100.00
2023-03-26T16:54:51.435Z,100.00
2023-03-26T16:56:53.529Z,100.00
2023-03-26T16:58:59.350Z,100.00
2023-03-26T17:01:07.738Z,100.00
2023-03-26T17:03:32.006Z,100.00
2023-03-26T17:05:37.984Z,100.00
2023-03-26T17:07:39.984Z,100.00
2023-03-26T17:09:46.688Z,100.00
2023-03-26T17:11:58.080Z,100.00
2023-03-26T17:14:03.857Z,100.00
2023-03-26T17:16:13.068Z,100.00
2023-03-26T17:18:27.510Z,100.00
2023-03-26T17:20:33.466Z,100.00
2023-03-26T17:22:40.361Z,100.00
2023-03-26T17:24:42.909Z,100.00
2023-03-26T17:26:53.272Z,100.00
2023-03-26T17:29:03.841Z,100.00
2023-03-26T17:31:09.099Z,100.00
2023-03-26T17:33:16.472Z,100.00
2023-03-26T17:35:13.944Z,100.00
2023-03-26T17:37:13.434Z,100.00
2023-03-26T17:39:24.864Z,100.00
2023-03-26T17:41:50.132Z,100.00
2023-03-26T17:43:50.219Z,100.00
2023-03-26T17:46:02.827Z,100.00
2023-03-26T17:48:02.558Z,100.00
2023-03-26T17:50:03.068Z,100.00
2023-03-26T17:54:55.946Z,100.00
2023-03-26T17:56:53.156Z,100.00
2023-03-26T17:58:58.890Z,100.00
2023-03-26T18:01:17.292Z,100.00
2023-03-26T18:03:21.381Z,100.00
2023-03-26T18:05:19.148Z,100.00
2023-03-26T18:07:44.185Z,100.00
2023-03-26T18:09:54.623Z,100.00
2023-03-26T18:12:17.051Z,100.00
2023-03-26T18:14:31.272Z,100.00
2023-03-26T18:16:31.454Z,100.00
2023-03-26T18:18:34.978Z,100.00
2023-03-26T18:20:32.760Z,100.00
2023-03-26T18:22:31.435Z,100.00
2023-03-26T18:24:31.504Z,100.00
2023-03-26T18:26:36.261Z,100.00
2023-03-26T18:28:33.671Z,100.00
2023-03-26T18:30:31.934Z,100.00
2023-03-26T18:32:31.127Z,100.00
2023-03-26T18:34:29.269Z,100.00
2023-03-26T18:36:27.934Z,100.00
2023-03-26T18:38:37.130Z,100.00
2023-03-26T18:40:42.484Z,100.00
2023-03-26T18:42:37.601Z,100.00
2023-03-26T18:44:38.407Z,100.00
2023-03-26T18:46:36.960Z,100.00
2023-03-26T18:48:32.749Z,100.00
2023-03-26T18:50:31.280Z,100.00
2023-03-26T18:52:26.916Z,100.00
2023-03-26T18:54:23.907Z,100.00
2023-03-26T18:56:30.545Z,100.00
2023-03-26T18:58:30.206Z,100.00
2023-03-26T19:00:28.720Z,100.00
2023-03-26T19:02:28.458Z,100.00
2023-03-26T19:04:25.296Z,100.00
2023-03-26T19:06:21.186Z,100.00
2023-03-26T19:08:19.291Z,100.00
2023-03-26T19:10:21.511Z,100.00
2023-03-26T19:12:22.940Z,100.00
2023-03-26T19:14:21.159Z,100.00
2023-03-26T19:16:23.803Z,100.00
2023-03-26T19:18:25.362Z,100.00
2023-03-26T19:20:24.735Z,100.00
2023-03-26T19:22:21.245Z,100.00
2023-03-26T19:24:17.631Z,100.00
2023-03-26T19:26:14.415Z,100.00
2023-03-26T19:28:18.587Z,100.00
2023-03-26T19:30:28.446Z,100.00
2023-03-26T19:32:32.650Z,100.00
2023-03-26T19:34:35.536Z,100.00
2023-03-26T19:36:32.541Z,100.00
2023-03-26T19:38:29.454Z,100.00
2023-03-26T19:40:30.008Z,100.00
2023-03-26T19:42:43.131Z,100.00
2023-03-26T19:44:42.447Z,100.00
2023-03-26T19:46:53.448Z,99.85
2023-03-26T19:48:52.010Z,100.00
2023-03-26T19:51:02.795Z,96.86
2023-03-26T19:53:19.092Z,97.95
2023-03-26T19:55:22.594Z,100.00
2023-03-26T19:57:17.690Z,98.83
2023-03-26T19:59:14.296Z,100.00
2023-03-26T20:01:13.619Z,100.00
2023-03-26T20:03:09.130Z,100.00
2023-03-26T20:05:04.653Z,95.56
2023-03-26T20:07:02.646Z,99.34
2023-03-26T20:08:57.999Z,100.00
2023-03-26T20:10:53.497Z,96.58
2023-03-26T20:12:48.794Z,100.00
2023-03-26T20:14:45.932Z,100.00
2023-03-26T20:16:42.906Z,100.00
2023-03-26T20:18:40.031Z,100.00
2023-03-26T20:20:36.589Z,100.00
2023-03-26T20:22:34.775Z,99.63
2023-03-26T20:24:36.068Z,100.00
2023-03-26T20:26:31.505Z,100.00
2023-03-26T20:28:26.737Z,100.00
2023-03-26T20:30:36.936Z,100.00
2023-03-26T20:32:32.700Z,100.00
2023-03-26T20:34:28.090Z,100.00
2023-03-26T20:36:33.420Z,100.00
2023-03-26T20:38:38.936Z,100.00
2023-03-26T20:40:35.866Z,100.00
2023-03-26T20:42:31.009Z,100.00
2023-03-26T20:44:28.240Z,100.00
2023-03-26T20:46:30.791Z,100.00
2023-03-26T20:48:27.107Z,100.00
2023-03-26T20:50:24.803Z,100.00
2023-03-26T20:52:20.243Z,100.00
2023-03-26T20:54:21.471Z,100.00
2023-03-26T20:56:19.064Z,100.00
2023-03-26T20:58:18.249Z,100.00
2023-03-26T21:00:27.017Z,100.00
2023-03-26T21:02:23.691Z,100.00
2023-03-26T21:04:20.891Z,100.00
2023-03-26T21:06:16.689Z,100.00
2023-03-26T21:08:18.278Z,100.00
2023-03-26T21:10:19.471Z,100.00
2023-03-26T21:12:24.846Z,100.00
2023-03-26T21:14:24.329Z,100.00
2023-03-26T21:16:21.005Z,100.00
2023-03-26T21:18:17.135Z,100.00
2023-03-26T21:20:16.840Z,100.00
2023-03-26T21:22:22.726Z,100.00
2023-03-26T21:24:29.764Z,100.00
2023-03-26T21:26:33.463Z,100.00
2023-03-26T21:28:42.014Z,100.00
2023-03-26T21:30:38.391Z,100.00
2023-03-26T21:32:35.521Z,100.00
2023-03-26T21:34:33.437Z,100.00
2023-03-26T21:36:29.897Z,100.00
2023-03-26T21:38:26.214Z,100.00
2023-03-26T21:40:22.667Z,100.00
2023-03-26T21:42:21.151Z,100.00
2023-03-26T21:44:18.468Z,100.00
2023-03-26T21:46:15.436Z,100.00
2023-03-26T21:48:12.227Z,100.00
2023-03-26T21:50:10.024Z,100.00
2023-03-26T21:52:06.253Z,100.00
2023-03-26T21:54:02.253Z,99.31
2023-03-26T21:56:03.228Z,99.79
2023-03-26T21:58:14.894Z,100.00
2023-03-26T22:00:15.378Z,100.00
2023-03-26T22:02:19.121Z,100.00
2023-03-26T22:04:21.226Z,100.00
2023-03-26T22:06:19.864Z,99.91
2023-03-26T22:08:24.396Z,100.00
2023-03-26T22:10:19.734Z,99.22
2023-03-26T22:12:16.885Z,100.00
2023-03-26T22:14:15.100Z,100.00
2023-03-26T22:16:12.437Z,100.00
2023-03-26T22:18:08.223Z,100.00
2023-03-26T22:20:07.709Z,100.00
2023-03-26T22:22:03.785Z,100.00
2023-03-26T22:23:59.213Z,100.00
2023-03-26T22:25:54.723Z,100.00
2023-03-26T22:27:51.752Z,100.00
2023-03-26T22:29:49.656Z,100.00
2023-03-26T22:31:45.495Z,100.00
2023-03-26T22:33:41.578Z,100.00
2023-03-26T22:35:37.505Z,100.00
2023-03-26T22:37:32.804Z,100.00
2023-03-26T22:39:28.906Z,100.00
2023-03-26T22:41:24.641Z,100.00
2023-03-26T22:43:20.296Z,100.00
2023-03-26T22:45:18.039Z,100.00
2023-03-26T22:47:13.755Z,100.00
2023-03-26T22:49:09.176Z,100.00
2023-03-26T22:51:06.462Z,100.00
2023-03-26T22:53:01.745Z,100.00
2023-03-26T22:54:57.207Z,100.00
2023-03-26T22:56:52.474Z,100.00
2023-03-26T22:58:48.182Z,100.00
2023-03-26T23:00:46.407Z,100.00
2023-03-26T23:02:41.984Z,100.00
2023-03-26T23:04:37.732Z,100.00
2023-03-26T23:06:33.506Z,100.00
2023-03-26T23:08:28.742Z,100.00
2023-03-26T23:10:24.609Z,100.00
2023-03-26T23:12:19.617Z,100.00
2023-03-26T23:14:15.282Z,100.00
2023-03-26T23:16:14.378Z,100.00
2023-03-26T23:18:11.358Z,100.00
2023-03-26T23:20:15.130Z,100.00
2023-03-26T23:22:14.303Z,100.00
2023-03-26T23:24:10.157Z,100.00
2023-03-26T23:26:07.432Z,100.00
2023-03-26T23:28:03.659Z,100.00
2023-03-26T23:29:59.516Z,100.00
2023-03-26T23:31:57.609Z,100.00
2023-03-26T23:33:53.356Z,100.00
2023-03-26T23:35:50.069Z,100.00
2023-03-26T23:37:45.596Z,100.00
2023-03-26T23:39:40.639Z,100.00
2023-03-26T23:41:36.871Z,100.00
2023-03-26T23:43:31.975Z,100.00
2023-03-26T23:45:27.412Z,100.00
2023-03-26T23:47:25.380Z,100.00
2023-03-26T23:49:20.919Z,100.00
2023-03-26T23:51:16.765Z,100.00
2023-03-26T23:53:12.150Z,100.00
2023-03-26T23:55:08.641Z,100.00
2023-03-26T23:57:04.066Z,100.00
2023-03-26T23:58:59.427Z,100.00
